Time;durP1;ratioP1;P1;durP2;ratioP2;P2;SDS_P1;SDS_P2;PMS_P1;PMS_P2;Temp;Humidity;BMP_temperature;BMP_pressure;BME280_temperature;BME280_humidity;BME280_pressure;Samples;Min_cycle;Max_cycle;Signal;HPM_P1;HPM_P2
2023/11/27 00:00:06;;;;;;;20.38;12.73;;;5.40;96.80;;;;;;5039508;28;20124;-80
2023/11/27 00:02:32;;;;;;;19.63;12.68;;;5.50;96.90;;;;;;5041245;28;20045;-78
2023/11/27 00:04:58;;;;;;;18.15;12.13;;;5.40;96.90;;;;;;5041592;28;20563;-78
2023/11/27 00:07:24;;;;;;;22.23;12.93;;;5.40;96.80;;;;;;5037644;28;20061;-78
2023/11/27 00:09:49;;;;;;;20.00;12.63;;;5.40;96.80;;;;;;5030839;28;20044;-80
2023/11/27 00:12:15;;;;;;;20.92;14.10;;;5.30;96.90;;;;;;5040379;28;20046;-79
2023/11/27 00:14:41;;;;;;;19.33;13.68;;;5.30;97.00;;;;;;5038570;28;20457;-78
2023/11/27 00:17:07;;;;;;;21.00;14.98;;;5.40;97.00;;;;;;5035002;28;20045;-78
2023/11/27 00:19:32;;;;;;;22.75;13.98;;;5.40;97.00;;;;;;5035208;28;20043;-79
2023/11/27 00:21:58;;;;;;;20.70;14.65;;;5.40;97.00;;;;;;5036544;28;20044;-78
2023/11/27 00:24:24;;;;;;;19.67;14.05;;;5.30;97.00;;;;;;5034582;28;20035;-78
2023/11/27 00:26:49;;;;;;;25.00;15.52;;;5.30;97.10;;;;;;5039637;28;20639;-80
2023/11/27 00:29:16;;;;;;;20.13;14.27;;;5.40;97.10;;;;;;5035519;28;20024;-78
2023/11/27 00:31:42;;;;;;;24.80;15.88;;;5.30;97.10;;;;;;5034803;28;20406;-77
2023/11/27 00:34:08;;;;;;;23.42;14.93;;;5.30;97.10;;;;;;5034043;28;20154;-76
2023/11/27 00:36:34;;;;;;;27.90;20.45;;;5.40;97.10;;;;;;5035894;28;20489;-76
2023/11/27 00:38:59;;;;;;;27.02;19.92;;;5.30;97.10;;;;;;5041109;28;20041;-75
2023/11/27 00:41:25;;;;;;;27.73;21.42;;;5.30;97.10;;;;;;5041103;28;20080;-75
2023/11/27 00:43:51;;;;;;;25.60;16.48;;;5.30;97.20;;;;;;5035536;28;20048;-78
2023/11/27 00:46:19;;;;;;;25.42;16.50;;;5.30;97.20;;;;;;5041324;28;20045;-78
2023/11/27 00:48:44;;;;;;;21.17;16.60;;;5.30;97.20;;;;;;5037641;28;20028;-76
2023/11/27 00:51:10;;;;;;;24.67;17.33;;;5.30;97.20;;;;;;5027876;28;20041;-76
2023/11/27 00:53:36;;;;;;;22.42;16.58;;;5.30;97.20;;;;;;5035802;28;20077;-78
2023/11/27 00:56:02;;;;;;;23.27;17.20;;;5.20;97.10;;;;;;5034830;28;20037;-76
2023/11/27 00:58:28;;;;;;;24.40;17.95;;;5.20;97.30;;;;;;5030226;28;20106;-76
2023/11/27 01:00:54;;;;;;;28.33;17.55;;;5.20;97.30;;;;;;5036018;28;20032;-77
2023/11/27 01:03:20;;;;;;;24.83;18.58;;;5.10;97.30;;;;;;5040955;28;20053;-76
2023/11/27 01:05:45;;;;;;;24.88;18.83;;;5.20;97.50;;;;;;5031198;28;20574;-76
2023/11/27 01:08:14;;;;;;;27.33;19.20;;;5.20;97.40;;;;;;5039695;28;20033;-76
2023/11/27 01:10:44;;;;;;;25.77;18.73;;;5.20;97.40;;;;;;5041674;28;20042;-77
2023/11/27 01:13:10;;;;;;;23.75;17.58;;;5.20;97.40;;;;;;5031030;28;20090;-77
2023/11/27 01:15:36;;;;;;;25.00;19.42;;;5.10;97.40;;;;;;5045717;28;20045;-76
2023/11/27 01:18:02;;;;;;;29.65;19.90;;;5.20;97.50;;;;;;5031703;28;20273;-77
2023/11/27 01:20:28;;;;;;;24.88;18.23;;;5.20;97.60;;;;;;5036212;28;20041;-78
2023/11/27 01:22:54;;;;;;;27.70;17.92;;;5.10;97.50;;;;;;5039185;28;20064;-77
2023/11/27 01:25:21;;;;;;;27.08;18.58;;;5.10;97.60;;;;;;5040137;28;20514;-77
2023/11/27 01:27:47;;;;;;;25.05;17.90;;;5.10;97.60;;;;;;5037319;28;20033;-77
2023/11/27 01:30:15;;;;;;;26.88;18.13;;;5.10;97.60;;;;;;5037142;28;20501;-76
2023/11/27 01:32:42;;;;;;;24.02;18.50;;;5.20;97.70;;;;;;5039327;28;20033;-77
2023/11/27 01:35:09;;;;;;;26.38;18.45;;;5.20;97.60;;;;;;5040247;28;20029;-77
2023/11/27 01:37:34;;;;;;;26.45;17.63;;;5.10;97.60;;;;;;5029087;28;20028;-77
2023/11/27 01:40:00;;;;;;;22.58;17.65;;;5.10;97.60;;;;;;5030545;28;20125;-77
2023/11/27 01:42:26;;;;;;;24.42;17.92;;;5.10;97.70;;;;;;5040249;28;20041;-77
2023/11/27 01:44:51;;;;;;;24.50;17.80;;;5.20;97.70;;;;;;5032115;28;20032;-77
2023/11/27 01:47:18;;;;;;;25.38;19.13;;;5.10;97.60;;;;;;5035929;28;20033;-78
2023/11/27 01:49:45;;;;;;;25.23;18.88;;;5.10;97.60;;;;;;5034625;28;20112;-77
2023/11/27 01:52:12;;;;;;;27.15;18.15;;;5.10;97.70;;;;;;5035193;28;20025;-77
2023/11/27 01:54:40;;;;;;;21.95;18.20;;;5.10;97.70;;;;;;5033283;28;20079;-76
2023/11/27 01:57:08;;;;;;;24.67;18.17;;;5.10;97.70;;;;;;5039773;28;20033;-76
2023/11/27 01:59:36;;;;;;;25.83;18.70;;;5.10;97.80;;;;;;5036914;28;20024;-76
2023/11/27 02:02:02;;;;;;;23.25;17.95;;;5.10;97.80;;;;;;5037458;28;20049;-76
2023/11/27 02:04:28;;;;;;;22.90;18.13;;;5.10;97.90;;;;;;5039645;28;20043;-77
2023/11/27 02:06:54;;;;;;;22.25;17.23;;;5.10;97.90;;;;;;5040655;28;20488;-77
2023/11/27 02:09:19;;;;;;;23.08;19.13;;;5.10;97.90;;;;;;5033417;28;20113;-78
2023/11/27 02:11:50;;;;;;;25.20;17.98;;;5.10;97.90;;;;;;5037929;28;20446;-76
2023/11/27 02:14:16;;;;;;;23.92;18.30;;;5.10;97.90;;;;;;5035130;28;20032;-76
2023/11/27 02:16:46;;;;;;;24.27;18.25;;;5.10;98.00;;;;;;5032679;28;20390;-77
2023/11/27 02:19:13;;;;;;;26.02;18.08;;;5.10;98.00;;;;;;5039873;28;20025;-78
2023/11/27 02:21:39;;;;;;;22.83;18.20;;;5.10;98.00;;;;;;5034041;28;20106;-78
2023/11/27 02:24:05;;;;;;;23.50;17.45;;;5.20;98.10;;;;;;5036130;28;20029;-77
2023/11/27 02:26:31;;;;;;;24.38;18.45;;;5.20;98.10;;;;;;5031364;28;20401;-77
2023/11/27 02:28:56;;;;;;;21.73;17.80;;;5.30;98.10;;;;;;5035612;28;20021;-77
2023/11/27 02:31:22;;;;;;;22.70;17.80;;;5.20;98.00;;;;;;5031067;28;20037;-77
2023/11/27 02:33:48;;;;;;;21.52;18.08;;;5.30;98.10;;;;;;5039934;28;20029;-78
2023/11/27 02:36:13;;;;;;;24.52;17.75;;;5.30;98.10;;;;;;5027535;28;20057;-78
2023/11/27 02:38:39;;;;;;;22.40;17.52;;;5.30;98.00;;;;;;5038412;28;20057;-77
2023/11/27 02:41:06;;;;;;;18.85;15.95;;;5.30;98.00;;;;;;5038802;28;20599;-77
2023/11/27 02:43:32;;;;;;;22.50;16.67;;;5.30;98.00;;;;;;5037600;28;20405;-77
2023/11/27 02:45:58;;;;;;;19.55;16.90;;;5.40;98.00;;;;;;5037728;28;20021;-77
2023/11/27 02:48:24;;;;;;;20.83;16.52;;;5.40;97.90;;;;;;5037720;28;20504;-77
2023/11/27 02:50:49;;;;;;;23.77;16.40;;;5.30;97.90;;;;;;5037050;28;20036;-78
2023/11/27 02:53:16;;;;;;;20.95;15.77;;;5.40;97.90;;;;;;5042003;28;20090;-77
2023/11/27 02:55:42;;;;;;;25.02;17.58;;;5.30;97.90;;;;;;5034756;28;20477;-78
2023/11/27 02:58:08;;;;;;;21.45;16.42;;;5.40;97.90;;;;;;5043566;28;20044;-77
2023/11/27 03:00:35;;;;;;;22.52;17.95;;;5.40;97.90;;;;;;5038644;28;20535;-77
2023/11/27 03:03:01;;;;;;;22.05;17.77;;;5.30;97.80;;;;;;5035291;28;20630;-79
2023/11/27 03:05:26;;;;;;;24.05;17.42;;;5.30;97.90;;;;;;5045922;28;20045;-76
2023/11/27 03:07:52;;;;;;;24.02;16.70;;;5.40;98.00;;;;;;5041399;28;20102;-78
2023/11/27 03:10:18;;;;;;;23.75;17.50;;;5.40;98.00;;;;;;5036660;28;20037;-80
2023/11/27 03:12:44;;;;;;;21.10;16.52;;;5.40;98.00;;;;;;5037996;28;20041;-78
2023/11/27 03:15:10;;;;;;;23.33;16.80;;;5.40;98.00;;;;;;5041296;28;20061;-76
2023/11/27 03:17:37;;;;;;;20.73;17.00;;;5.40;97.90;;;;;;5041538;28;20155;-77
2023/11/27 03:20:04;;;;;;;22.00;16.27;;;5.40;97.90;;;;;;5035784;28;20044;-77
2023/11/27 03:22:33;;;;;;;24.45;16.38;;;5.50;97.90;;;;;;5034481;28;20033;-77
2023/11/27 03:24:58;;;;;;;23.17;17.23;;;5.50;97.90;;;;;;5031284;28;20026;-80
2023/11/27 03:27:24;;;;;;;22.80;16.20;;;5.40;97.90;;;;;;5035707;28;20341;-76
2023/11/27 03:29:50;;;;;;;21.38;16.02;;;5.50;97.90;;;;;;5037531;28;20121;-80
2023/11/27 03:32:15;;;;;;;23.95;16.67;;;5.50;97.90;;;;;;5037554;28;20365;-78
2023/11/27 03:34:43;;;;;;;24.73;16.67;;;5.40;97.90;;;;;;5043769;28;20100;-78
2023/11/27 03:37:09;;;;;;;22.55;15.20;;;5.50;98.00;;;;;;5037572;28;20497;-79
2023/11/27 03:39:35;;;;;;;19.80;14.77;;;5.50;98.00;;;;;;5042639;28;20440;-78
2023/11/27 03:42:01;;;;;;;21.73;16.00;;;5.60;98.00;;;;;;5036952;28;20034;-79
2023/11/27 03:44:26;;;;;;;20.50;14.70;;;5.50;97.90;;;;;;5036053;28;20036;-78
2023/11/27 03:46:52;;;;;;;23.02;14.40;;;5.50;97.90;;;;;;5040502;28;20138;-78
2023/11/27 03:49:18;;;;;;;23.00;15.07;;;5.50;97.90;;;;;;5035688;28;20029;-79
2023/11/27 03:51:44;;;;;;;22.38;15.15;;;5.60;97.90;;;;;;5034158;28;20445;-78
2023/11/27 03:54:12;;;;;;;22.90;15.55;;;5.60;97.90;;;;;;5035552;28;20463;-78
2023/11/27 03:56:38;;;;;;;20.35;14.52;;;5.60;97.90;;;;;;5039737;28;20040;-80
2023/11/27 03:59:04;;;;;;;19.00;14.13;;;5.60;97.90;;;;;;5037698;28;20033;-81
2023/11/27 04:01:30;;;;;;;21.73;14.30;;;5.60;97.90;;;;;;5038874;28;20179;-79
2023/11/27 04:03:56;;;;;;;18.73;13.80;;;5.60;97.90;;;;;;5042378;28;20071;-79
2023/11/27 04:06:26;;;;;;;20.83;15.00;;;5.60;97.90;;;;;;5038994;28;20065;-78
2023/11/27 04:08:51;;;;;;;23.55;14.15;;;5.60;97.90;;;;;;5064026;28;20021;-79
2023/11/27 04:11:18;;;;;;;23.15;15.32;;;5.60;97.80;;;;;;5060828;28;20047;-78
2023/11/27 04:13:44;;;;;;;23.70;15.45;;;5.60;97.80;;;;;;5037444;28;20264;-78
2023/11/27 04:16:10;;;;;;;21.52;14.23;;;5.60;97.80;;;;;;5035103;28;20032;-78
2023/11/27 04:18:36;;;;;;;21.98;14.13;;;5.60;97.90;;;;;;5037505;28;20091;-78
2023/11/27 04:21:02;;;;;;;16.45;13.65;;;5.60;97.90;;;;;;5034038;28;20075;-77
2023/11/27 04:23:28;;;;;;;18.77;13.07;;;5.60;97.90;;;;;;5038787;28;20073;-78
2023/11/27 04:25:54;;;;;;;20.20;13.57;;;5.60;97.90;;;;;;5036791;28;20076;-77
2023/11/27 04:28:20;;;;;;;20.83;14.50;;;5.60;98.00;;;;;;5036615;28;20082;-77
2023/11/27 04:30:46;;;;;;;20.98;13.98;;;5.70;98.00;;;;;;5033909;28;20041;-79
2023/11/27 04:33:14;;;;;;;20.55;13.73;;;5.60;98.00;;;;;;5034750;28;20398;-77
2023/11/27 04:35:39;;;;;;;20.65;13.00;;;5.70;98.00;;;;;;5034634;28;20084;-77
2023/11/27 04:38:05;;;;;;;21.45;13.63;;;5.70;98.00;;;;;;5039780;28;20557;-77
2023/11/27 04:40:31;;;;;;;18.88;13.57;;;5.70;98.10;;;;;;5035415;28;20020;-77
2023/11/27 04:42:57;;;;;;;19.65;14.20;;;5.80;98.10;;;;;;5037181;28;20490;-79
2023/11/27 04:45:22;;;;;;;19.30;13.55;;;5.70;98.10;;;;;;5038625;28;20033;-77
2023/11/27 04:47:50;;;;;;;19.40;13.57;;;5.80;98.10;;;;;;5039750;28;20090;-77
2023/11/27 04:50:15;;;;;;;23.05;14.80;;;5.80;98.10;;;;;;5039485;28;20037;-78
2023/11/27 04:52:41;;;;;;;18.33;13.43;;;5.80;98.10;;;;;;5040950;28;20037;-77
2023/11/27 04:55:07;;;;;;;19.48;13.38;;;5.80;98.10;;;;;;5033751;28;20348;-77
2023/11/27 04:57:33;;;;;;;20.45;13.80;;;5.80;98.20;;;;;;5048799;28;20202;-78
2023/11/27 04:59:59;;;;;;;21.00;14.57;;;5.90;98.10;;;;;;5033912;28;20125;-78
2023/11/27 05:02:25;;;;;;;21.20;13.18;;;5.80;98.10;;;;;;5036297;28;20045;-78
2023/11/27 05:04:51;;;;;;;19.30;13.48;;;5.80;98.20;;;;;;5040126;28;20049;-77
2023/11/27 05:07:17;;;;;;;17.90;13.65;;;5.80;98.20;;;;;;5043216;28;20124;-78
2023/11/27 05:09:42;;;;;;;19.02;13.00;;;5.90;98.20;;;;;;5037648;28;20021;-79
2023/11/27 05:12:09;;;;;;;19.08;13.30;;;5.90;98.20;;;;;;5033585;28;20461;-77
2023/11/27 05:14:35;;;;;;;17.67;12.95;;;5.90;98.20;;;;;;5046193;28;20025;-78
2023/11/27 05:17:00;;;;;;;18.92;13.68;;;5.90;98.20;;;;;;5035435;28;20086;-78
2023/11/27 05:19:29;;;;;;;18.70;12.43;;;5.90;98.10;;;;;;5040206;28;20075;-78
2023/11/27 05:21:55;;;;;;;16.48;12.23;;;5.90;98.20;;;;;;5037065;28;20082;-78
2023/11/27 05:24:21;;;;;;;17.77;12.65;;;6.00;98.10;;;;;;5030599;28;20033;-78
2023/11/27 05:26:46;;;;;;;17.17;12.80;;;6.00;98.20;;;;;;5026455;28;20045;-78
2023/11/27 05:29:12;;;;;;;20.20;12.57;;;6.00;98.20;;;;;;5042043;28;20231;-79
2023/11/27 05:31:38;;;;;;;18.02;13.05;;;6.00;98.20;;;;;;5038243;28;20471;-76
2023/11/27 05:34:03;;;;;;;18.63;12.38;;;6.00;98.20;;;;;;5037179;28;20079;-77
2023/11/27 05:36:29;;;;;;;19.58;12.82;;;6.00;98.20;;;;;;5033963;28;20029;-78
2023/11/27 05:38:55;;;;;;;17.35;12.85;;;6.00;98.20;;;;;;5032195;28;20620;-78
2023/11/27 05:41:22;;;;;;;18.73;12.85;;;5.90;98.20;;;;;;5028786;28;20448;-80
2023/11/27 05:43:48;;;;;;;18.58;12.68;;;6.00;98.30;;;;;;5035652;28;20025;-80
2023/11/27 05:46:14;;;;;;;16.38;12.68;;;6.00;98.30;;;;;;5032052;28;20371;-79
2023/11/27 05:48:40;;;;;;;20.80;12.68;;;6.00;98.30;;;;;;5031378;28;20040;-78
2023/11/27 05:51:06;;;;;;;19.67;12.60;;;6.00;98.30;;;;;;5033484;28;20021;-78
2023/11/27 05:53:32;;;;;;;15.75;12.15;;;6.00;98.30;;;;;;5028927;28;20032;-78
2023/11/27 05:55:57;;;;;;;15.35;12.35;;;6.00;98.20;;;;;;5035047;28;20481;-77
2023/11/27 05:58:23;;;;;;;17.58;12.65;;;6.00;98.30;;;;;;5040184;28;20081;-78
2023/11/27 06:00:49;;;;;;;15.57;12.02;;;6.10;98.30;;;;;;5037089;28;20044;-78
2023/11/27 06:03:14;;;;;;;16.88;13.27;;;6.10;98.30;;;;;;5029285;28;20105;-77
2023/11/27 06:05:40;;;;;;;18.02;13.07;;;6.00;98.30;;;;;;5040794;28;20044;-77
2023/11/27 06:08:06;;;;;;;19.10;13.02;;;6.10;98.40;;;;;;5047055;28;20049;-78
2023/11/27 06:10:32;;;;;;;17.38;12.27;;;6.10;98.30;;;;;;5037711;28;20037;-76
2023/11/27 06:12:57;;;;;;;19.55;13.65;;;6.10;98.40;;;;;;5035661;28;20435;-76
2023/11/27 06:15:23;;;;;;;16.83;12.93;;;6.10;98.30;;;;;;5038293;28;20701;-76
2023/11/27 06:17:48;;;;;;;17.52;12.80;;;6.10;98.30;;;;;;5028165;28;20120;-77
2023/11/27 06:20:14;;;;;;;16.17;13.32;;;6.10;98.40;;;;;;5034698;28;20022;-77
2023/11/27 06:22:40;;;;;;;19.52;13.32;;;6.10;98.40;;;;;;5035677;28;20125;-76
2023/11/27 06:25:08;;;;;;;18.75;13.55;;;6.10;98.50;;;;;;5040908;28;20028;-76
2023/11/27 06:27:34;;;;;;;16.05;13.95;;;6.10;98.50;;;;;;5041727;28;20094;-78
2023/11/27 06:29:59;;;;;;;17.70;13.30;;;6.10;98.50;;;;;;5045486;28;20112;-77
2023/11/27 06:32:26;;;;;;;16.92;13.32;;;6.10;98.50;;;;;;5043708;28;20038;-76
2023/11/27 06:34:52;;;;;;;15.88;12.55;;;6.10;98.60;;;;;;5042523;28;20047;-76
2023/11/27 06:37:17;;;;;;;20.77;14.13;;;6.10;98.60;;;;;;5037009;28;20061;-77
2023/11/27 06:39:43;;;;;;;17.73;12.98;;;6.10;98.50;;;;;;5037038;28;20045;-78
2023/11/27 06:42:12;;;;;;;18.10;13.18;;;6.10;98.60;;;;;;5040450;28;20352;-76
2023/11/27 06:44:39;;;;;;;18.40;13.48;;;6.20;98.70;;;;;;5038030;28;20024;-77
2023/11/27 06:47:05;;;;;;;18.67;12.82;;;6.10;98.60;;;;;;5040662;28;20183;-77
2023/11/27 06:49:31;;;;;;;18.77;13.70;;;6.20;98.60;;;;;;5035288;28;20022;-77
2023/11/27 06:51:56;;;;;;;19.33;14.27;;;6.20;98.70;;;;;;5033166;28;20048;-77
2023/11/27 06:54:22;;;;;;;18.55;14.82;;;6.20;98.70;;;;;;5036546;28;20393;-78
2023/11/27 06:56:48;;;;;;;19.95;14.70;;;6.30;98.70;;;;;;5026824;28;20040;-77
2023/11/27 06:59:14;;;;;;;19.23;14.73;;;6.30;98.70;;;;;;5036083;28;20029;-74
2023/11/27 07:01:43;;;;;;;24.02;16.38;;;6.30;98.70;;;;;;5036966;28;20040;-73
2023/11/27 07:04:09;;;;;;;17.30;15.35;;;6.30;98.80;;;;;;5035059;28;20183;-73
2023/11/27 07:06:35;;;;;;;20.77;16.00;;;6.40;98.80;;;;;;5026683;28;20124;-75
2023/11/27 07:09:04;;;;;;;19.00;16.33;;;6.40;98.80;;;;;;5036969;28;20017;-74
2023/11/27 07:11:32;;;;;;;20.50;14.82;;;6.40;98.80;;;;;;5033597;28;20029;-74
2023/11/27 07:13:59;;;;;;;21.38;16.75;;;6.40;98.80;;;;;;5039589;28;20017;-74
2023/11/27 07:16:26;;;;;;;18.45;15.77;;;6.40;98.80;;;;;;5042072;28;20150;-75
2023/11/27 07:18:52;;;;;;;21.50;15.50;;;6.40;98.80;;;;;;5042532;28;20516;-74
2023/11/27 07:21:18;;;;;;;21.27;16.75;;;6.50;98.80;;;;;;5041371;28;20034;-75
2023/11/27 07:23:44;;;;;;;20.23;15.00;;;6.40;98.80;;;;;;5033320;28;20041;-76
2023/11/27 07:26:10;;;;;;;22.23;16.20;;;6.40;98.80;;;;;;5039644;28;20033;-75
2023/11/27 07:28:40;;;;;;;20.10;16.35;;;6.40;98.80;;;;;;5036866;28;20029;-76
2023/11/27 07:31:06;;;;;;;18.45;15.20;;;6.40;98.80;;;;;;5033640;28;20054;-75
2023/11/27 07:33:34;;;;;;;23.88;15.77;;;6.50;98.80;;;;;;5038062;28;20052;-73
2023/11/27 07:35:59;;;;;;;20.90;15.63;;;6.50;98.80;;;;;;5038539;28;20033;-76
2023/11/27 07:38:25;;;;;;;17.10;14.68;;;6.50;98.90;;;;;;5042323;28;20543;-75
2023/11/27 07:40:52;;;;;;;20.20;15.63;;;6.50;98.90;;;;;;5035601;28;20398;-75
2023/11/27 07:43:18;;;;;;;19.25;15.85;;;6.50;98.90;;;;;;5037444;28;20056;-76
2023/11/27 07:45:45;;;;;;;20.58;16.60;;;6.50;98.90;;;;;;5037659;28;20141;-75
2023/11/27 07:48:11;;;;;;;23.08;16.23;;;6.60;98.80;;;;;;5040499;28;20044;-74
2023/11/27 07:50:37;;;;;;;20.45;15.88;;;6.50;98.90;;;;;;5041520;28;20525;-74
2023/11/27 07:53:03;;;;;;;19.23;15.43;;;6.50;98.90;;;;;;5037535;28;20059;-74
2023/11/27 07:55:29;;;;;;;18.65;14.57;;;6.60;98.90;;;;;;5042622;28;20032;-76
2023/11/27 07:57:54;;;;;;;17.73;14.55;;;6.60;98.90;;;;;;5040174;28;20465;-75
2023/11/27 08:00:20;;;;;;;19.20;14.10;;;6.60;98.90;;;;;;5041262;28;20033;-76
2023/11/27 08:02:47;;;;;;;18.95;14.20;;;6.60;98.90;;;;;;5041573;28;20029;-76
2023/11/27 08:05:15;;;;;;;18.25;14.07;;;6.60;98.90;;;;;;5038570;28;20091;-77
2023/11/27 08:07:41;;;;;;;17.33;12.65;;;6.70;98.90;;;;;;5041343;28;20163;-75
2023/11/27 08:10:08;;;;;;;16.58;12.95;;;6.70;98.90;;;;;;5038058;28;21119;-77
2023/11/27 08:12:36;;;;;;;16.98;12.13;;;6.70;98.90;;;;;;5035757;28;20143;-75
2023/11/27 08:15:05;;;;;;;18.25;12.00;;;6.70;98.80;;;;;;5037534;28;20111;-75
2023/11/27 08:17:32;;;;;;;14.82;11.45;;;6.70;98.90;;;;;;5040633;28;20056;-76
2023/11/27 08:19:57;;;;;;;17.52;12.35;;;6.80;98.90;;;;;;5042809;28;20044;-75
2023/11/27 08:22:23;;;;;;;14.27;10.80;;;6.70;98.90;;;;;;5035463;28;20048;-75
2023/11/27 08:24:49;;;;;;;16.35;11.80;;;6.80;98.90;;;;;;5035906;28;20409;-76
2023/11/27 08:27:15;;;;;;;13.88;11.25;;;6.80;98.90;;;;;;5040514;28;20061;-75
2023/11/27 08:29:40;;;;;;;17.23;11.60;;;6.80;98.80;;;;;;5039097;28;20440;-75
2023/11/27 08:32:07;;;;;;;16.45;12.27;;;6.80;98.80;;;;;;5042902;28;20045;-75
2023/11/27 08:34:33;;;;;;;15.13;11.95;;;6.80;98.80;;;;;;5037167;28;20104;-76
2023/11/27 08:37:04;;;;;;;14.85;12.27;;;6.80;98.80;;;;;;5032569;28;20056;-76
2023/11/27 08:39:30;;;;;;;16.02;11.82;;;6.80;98.80;;;;;;5031071;28;20391;-75
2023/11/27 08:41:55;;;;;;;16.98;13.20;;;6.80;98.80;;;;;;5037496;28;20055;-75
2023/11/27 08:44:21;;;;;;;20.15;16.27;;;6.90;98.80;;;;;;5035855;28;20040;-75
2023/11/27 08:46:47;;;;;;;20.98;16.70;;;6.80;98.90;;;;;;5040481;28;20603;-75
2023/11/27 08:49:13;;;;;;;25.13;21.45;;;6.90;98.90;;;;;;5034403;28;20033;-75
2023/11/27 08:51:44;;;;;;;33.75;26.92;;;6.90;98.80;;;;;;5038563;28;20068;-76
2023/11/27 08:54:11;;;;;;;22.45;18.45;;;6.90;98.90;;;;;;5033631;28;20056;-75
2023/11/27 08:56:40;;;;;;;24.65;19.40;;;6.90;98.90;;;;;;5034154;28;20044;-75
2023/11/27 08:59:06;;;;;;;18.02;15.05;;;6.90;98.90;;;;;;5039159;28;20051;-76
2023/11/27 09:01:32;;;;;;;17.45;14.35;;;7.00;98.90;;;;;;5037592;28;20348;-76
2023/11/27 09:03:57;;;;;;;15.50;13.90;;;7.00;98.80;;;;;;5038563;28;20400;-75
2023/11/27 09:06:23;;;;;;;19.83;14.00;;;7.00;98.80;;;;;;5040077;28;20040;-75
2023/11/27 09:08:49;;;;;;;17.02;13.50;;;7.00;98.90;;;;;;5042276;28;20017;-75
2023/11/27 09:11:14;;;;;;;17.38;13.85;;;7.10;98.90;;;;;;5059443;28;20097;-78
2023/11/27 09:13:40;;;;;;;15.45;12.63;;;7.10;98.90;;;;;;5064164;28;20043;-77
2023/11/27 09:16:08;;;;;;;16.48;12.63;;;7.10;98.80;;;;;;5064815;28;20071;-77
2023/11/27 09:18:34;;;;;;;17.38;12.75;;;7.10;98.80;;;;;;5049651;28;20425;-77
2023/11/27 09:21:00;;;;;;;15.00;12.35;;;7.10;98.90;;;;;;5039796;28;20079;-77
2023/11/27 09:23:25;;;;;;;14.93;12.73;;;7.10;98.90;;;;;;5026122;28;20593;-76
2023/11/27 09:25:51;;;;;;;16.98;12.27;;;7.10;98.90;;;;;;5040195;28;20115;-76
2023/11/27 09:28:16;;;;;;;15.10;12.57;;;7.10;98.90;;;;;;5040802;28;20061;-76
2023/11/27 09:30:42;;;;;;;14.25;11.77;;;7.20;99.00;;;;;;5039176;28;20041;-76
2023/11/27 09:33:08;;;;;;;16.10;11.65;;;7.30;99.00;;;;;;5040620;28;20041;-77
2023/11/27 09:35:33;;;;;;;14.38;11.95;;;7.20;99.00;;;;;;5039486;28;20449;-76
2023/11/27 09:38:00;;;;;;;15.52;12.57;;;7.20;99.00;;;;;;5037269;28;20496;-76
2023/11/27 09:40:26;;;;;;;15.02;12.23;;;7.30;99.00;;;;;;5042744;28;20029;-75
2023/11/27 09:42:53;;;;;;;13.30;11.05;;;7.30;99.10;;;;;;5035797;28;20043;-77
2023/11/27 09:45:19;;;;;;;16.02;11.85;;;7.30;99.10;;;;;;5028738;28;20034;-79
2023/11/27 09:47:48;;;;;;;17.35;11.98;;;7.40;99.20;;;;;;5033121;28;20033;-76
2023/11/27 09:50:18;;;;;;;15.77;11.90;;;7.40;99.10;;;;;;5032251;28;20041;-76
2023/11/27 09:53:06;;;;;;;14.27;11.40;;;7.50;99.20;;;;;;5039194;28;20380;-77
2023/11/27 09:55:37;;;;;;;14.00;11.55;;;7.60;99.10;;;;;;5039014;28;20025;-77
2023/11/27 09:58:05;;;;;;;15.95;11.60;;;7.60;99.00;;;;;;5038805;28;20044;-76
2023/11/27 10:00:31;;;;;;;15.65;12.02;;;7.60;99.10;;;;;;5039111;28;20363;-78
2023/11/27 10:02:58;;;;;;;14.05;12.02;;;7.70;99.10;;;;;;5033998;28;20045;-78
2023/11/27 10:05:24;;;;;;;13.32;11.68;;;7.60;99.00;;;;;;5041035;28;20033;-75
2023/11/27 10:07:51;;;;;;;12.98;11.57;;;7.70;99.00;;;;;;5047544;28;20048;-78
2023/11/27 10:10:25;;;;;;;14.45;11.05;;;7.60;99.00;;;;;;5034569;28;20485;-76
2023/11/27 10:13:03;;;;;;;13.20;11.10;;;7.70;99.00;;;;;;5036845;28;20033;-76
2023/11/27 10:15:30;;;;;;;13.68;11.32;;;7.70;98.90;;;;;;5037880;28;20029;-79
2023/11/27 10:17:57;;;;;;;13.75;11.55;;;7.70;98.80;;;;;;5036065;28;20049;-77
2023/11/27 10:20:26;;;;;;;14.90;10.88;;;7.70;98.90;;;;;;5040526;28;20053;-75
2023/11/27 10:23:08;;;;;;;12.52;11.07;;;7.80;98.80;;;;;;5037479;28;20049;-76
2023/11/27 10:25:34;;;;;;;13.27;10.13;;;7.80;98.80;;;;;;5038548;28;20132;-78
2023/11/27 10:28:02;;;;;;;13.90;11.15;;;7.80;98.80;;;;;;5038688;28;20160;-79
2023/11/27 10:30:32;;;;;;;13.93;9.77;;;7.80;98.80;;;;;;5037357;28;20064;-79
2023/11/27 10:32:57;;;;;;;13.77;10.40;;;7.80;98.80;;;;;;5033820;28;20237;-77
2023/11/27 10:35:25;;;;;;;12.98;11.40;;;7.80;98.60;;;;;;5040103;28;20029;-76
2023/11/27 10:37:54;;;;;;;15.25;12.18;;;7.80;98.70;;;;;;5030937;28;20472;-75
2023/11/27 10:40:20;;;;;;;16.85;15.02;;;7.80;98.60;;;;;;5035083;28;20237;-75
2023/11/27 10:42:49;;;;;;;21.02;16.38;;;7.80;98.60;;;;;;5037804;28;20038;-76
2023/11/27 10:45:16;;;;;;;31.63;25.25;;;7.80;98.70;;;;;;5041535;28;20052;-77
2023/11/27 10:47:51;;;;;;;25.67;19.38;;;7.80;98.70;;;;;;5037670;28;20052;-78
2023/11/27 10:50:19;;;;;;;30.08;23.85;;;7.80;98.80;;;;;;5039373;28;20026;-77
2023/11/27 10:52:49;;;;;;;22.13;18.73;;;7.90;98.70;;;;;;5037755;28;20041;-76
2023/11/27 10:55:17;;;;;;;17.63;14.35;;;7.90;98.80;;;;;;5039635;28;20036;-79
2023/11/27 10:57:47;;;;;;;18.38;15.82;;;7.90;98.80;;;;;;5040536;28;20025;-77
2023/11/27 11:01:01;;;;;;;21.40;17.27;;;7.80;98.80;;;;;;5037821;28;20063;-77
2023/11/27 11:03:21;;;;;;;20.52;16.90;;;7.90;98.90;;;;;;5035686;28;20073;-75
2023/11/27 11:05:52;;;;;;;17.08;14.75;;;7.90;98.80;;;;;;5038593;28;20064;-76
2023/11/27 11:08:32;;;;;;;16.70;14.68;;;7.90;98.90;;;;;;5042922;28;20440;-74
2023/11/27 11:11:05;;;;;;;17.58;15.10;;;7.90;98.90;;;;;;5035769;28;20047;-74
2023/11/27 11:13:33;;;;;;;16.67;14.43;;;7.90;98.90;;;;;;5037765;28;20257;-76
2023/11/27 11:16:18;;;;;;;17.00;14.80;;;7.90;99.00;;;;;;5039713;28;20055;-76
2023/11/27 11:19:16;;;;;;;16.35;13.98;;;8.00;99.10;;;;;;5040127;28;20065;-79
2023/11/27 11:21:50;;;;;;;17.17;14.10;;;7.90;99.00;;;;;;5046932;28;20038;-76
2023/11/27 11:24:29;;;;;;;17.42;14.10;;;8.00;99.10;;;;;;5041300;28;20032;-77
2023/11/27 11:27:08;;;;;;;17.75;15.02;;;8.10;99.00;;;;;;5048349;28;20025;-77
2023/11/27 11:29:36;;;;;;;16.88;14.90;;;8.00;99.00;;;;;;5042623;28;20064;-74
2023/11/27 11:32:05;;;;;;;17.85;15.45;;;8.10;99.10;;;;;;5043773;28;20074;-75
2023/11/27 11:34:36;;;;;;;17.55;14.73;;;8.10;99.10;;;;;;5040114;28;20017;-74
2023/11/27 11:37:05;;;;;;;17.98;15.15;;;8.00;99.10;;;;;;5034496;28;20463;-74
2023/11/27 11:39:32;;;;;;;18.77;14.90;;;8.10;99.10;;;;;;5038259;28;20064;-74
2023/11/27 11:42:03;;;;;;;19.48;16.08;;;8.10;99.10;;;;;;5038839;28;20482;-74
2023/11/27 11:44:33;;;;;;;18.02;15.30;;;8.10;99.10;;;;;;5040273;28;20456;-73
2023/11/27 11:46:59;;;;;;;17.30;15.27;;;8.10;99.10;;;;;;5043295;28;20048;-76
2023/11/27 11:49:28;;;;;;;17.80;14.88;;;8.10;99.10;;;;;;5045791;28;20025;-76
2023/11/27 11:52:15;;;;;;;16.13;14.43;;;8.10;99.10;;;;;;5042655;28;20258;-73
2023/11/27 11:54:41;;;;;;;16.35;14.43;;;8.10;99.20;;;;;;5040457;28;20021;-77
2023/11/27 11:57:33;;;;;;;16.75;14.95;;;8.20;99.20;;;;;;5043911;28;20040;-73
2023/11/27 12:00:04;;;;;;;17.02;15.07;;;8.20;99.20;;;;;;5034526;28;20041;-75
2023/11/27 12:02:32;;;;;;;18.20;14.82;;;8.20;99.20;;;;;;5030241;28;20086;-74
2023/11/27 12:04:58;;;;;;;14.85;13.25;;;8.20;99.20;;;;;;5043134;28;20345;-74
2023/11/27 12:07:24;;;;;;;16.92;14.38;;;8.20;99.20;;;;;;5037480;28;20037;-74
2023/11/27 12:09:51;;;;;;;16.58;14.52;;;8.30;99.20;;;;;;5042334;28;20028;-74
2023/11/27 12:12:19;;;;;;;17.65;15.18;;;8.30;99.20;;;;;;5035886;28;20508;-74
2023/11/27 12:14:46;;;;;;;17.05;15.10;;;8.30;99.20;;;;;;5043171;28;21831;-75
2023/11/27 12:17:15;;;;;;;17.85;15.57;;;8.40;99.30;;;;;;5037402;28;20552;-74
2023/11/27 12:19:45;;;;;;;18.73;16.70;;;8.40;99.30;;;;;;5039259;28;20112;-74
2023/11/27 12:22:12;;;;;;;18.85;15.88;;;8.40;99.20;;;;;;5043633;28;20090;-74
2023/11/27 12:24:46;;;;;;;20.27;16.33;;;8.40;99.30;;;;;;5037228;28;20040;-76
2023/11/27 12:27:13;;;;;;;;;;;8.40;99.30;;;;;;5039574;28;20066;-76
2023/11/27 12:29:38;;;;;;;18.33;16.23;;;8.40;99.30;;;;;;5041495;28;20386;-75
2023/11/27 12:32:06;;;;;;;17.50;14.30;;;8.50;99.40;;;;;;5036693;28;20052;-77
2023/11/27 12:34:35;;;;;;;18.33;15.13;;;8.50;99.40;;;;;;5044069;28;20013;-75
2023/11/27 12:37:02;;;;;;;16.45;14.68;;;8.50;99.30;;;;;;5040271;28;20040;-74